sensor_id;sensor_type;location;lat;lon;timestamp;P1;durP1;ratioP1;P2;durP2;ratioP2
75096;SDS011;63684;47.964;11.186;2023-08-06T00:01:38;4.50;;;4.10;;
75096;SDS011;63684;47.964;11.186;2023-08-06T00:04:03;6.47;;;3.93;;
75096;SDS011;63684;47.964;11.186;2023-08-06T00:06:29;8.07;;;3.90;;
75096;SDS011;63684;47.964;11.186;2023-08-06T00:08:54;8.13;;;3.90;;
75096;SDS011;63684;47.964;11.186;2023-08-06T00:11:20;4.73;;;4.00;;
75096;SDS011;63684;47.964;11.186;2023-08-06T00:13:45;4.60;;;4.10;;
75096;SDS011;63684;47.964;11.186;2023-08-06T00:16:11;5.43;;;4.13;;
75096;SDS011;63684;47.964;11.186;2023-08-06T00:18:37;4.50;;;4.10;;
75096;SDS011;63684;47.964;11.186;2023-08-06T00:21:03;7.67;;;3.80;;
75096;SDS011;63684;47.964;11.186;2023-08-06T00:23:28;4.40;;;3.83;;
75096;SDS011;63684;47.964;11.186;2023-08-06T00:25:54;4.00;;;3.70;;
75096;SDS011;63684;47.964;11.186;2023-08-06T00:28:19;5.17;;;4.30;;
75096;SDS011;63684;47.964;11.186;2023-08-06T00:30:45;5.90;;;3.77;;
75096;SDS011;63684;47.964;11.186;2023-08-06T00:33:10;3.97;;;3.60;;
75096;SDS011;63684;47.964;11.186;2023-08-06T00:35:36;3.67;;;3.27;;
75096;SDS011;63684;47.964;11.186;2023-08-06T00:38:02;4.87;;;3.00;;
75096;SDS011;63684;47.964;11.186;2023-08-06T00:40:27;3.33;;;2.93;;
75096;SDS011;63684;47.964;11.186;2023-08-06T00:42:55;5.43;;;3.20;;
75096;SDS011;63684;47.964;11.186;2023-08-06T00:45:21;6.90;;;3.50;;
75096;SDS011;63684;47.964;11.186;2023-08-06T00:47:47;3.53;;;3.23;;
75096;SDS011;63684;47.964;11.186;2023-08-06T00:50:13;4.97;;;3.53;;
75096;SDS011;63684;47.964;11.186;2023-08-06T00:52:38;6.07;;;3.00;;
75096;SDS011;63684;47.964;11.186;2023-08-06T00:55:04;4.27;;;2.97;;
75096;SDS011;63684;47.964;11.186;2023-08-06T00:57:30;3.10;;;2.90;;
75096;SDS011;63684;47.964;11.186;2023-08-06T00:59:56;3.60;;;2.73;;
75096;SDS011;63684;47.964;11.186;2023-08-06T01:02:21;3.07;;;2.50;;
75096;SDS011;63684;47.964;11.186;2023-08-06T01:04:47;9.53;;;2.97;;
75096;SDS011;63684;47.964;11.186;2023-08-06T01:07:19;3.00;;;2.73;;
75096;SDS011;63684;47.964;11.186;2023-08-06T01:09:53;5.23;;;2.93;;
75096;SDS011;63684;47.964;11.186;2023-08-06T01:15:27;5.43;;;3.13;;
75096;SDS011;63684;47.964;11.186;2023-08-06T01:17:54;3.33;;;2.60;;
75096;SDS011;63684;47.964;11.186;2023-08-06T01:20:19;3.40;;;3.10;;
75096;SDS011;63684;47.964;11.186;2023-08-06T01:22:45;3.00;;;2.67;;
75096;SDS011;63684;47.964;11.186;2023-08-06T01:25:11;4.53;;;2.47;;
75096;SDS011;63684;47.964;11.186;2023-08-06T01:32:45;2.70;;;2.50;;
75096;SDS011;63684;47.964;11.186;2023-08-06T01:35:12;2.87;;;2.17;;
75096;SDS011;63684;47.964;11.186;2023-08-06T01:37:39;5.80;;;2.33;;
75096;SDS011;63684;47.964;11.186;2023-08-06T01:40:06;2.00;;;1.90;;
75096;SDS011;63684;47.964;11.186;2023-08-06T01:42:36;2.40;;;2.20;;
75096;SDS011;63684;47.964;11.186;2023-08-06T01:45:02;2.33;;;2.13;;
75096;SDS011;63684;47.964;11.186;2023-08-06T01:47:28;2.40;;;2.20;;
75096;SDS011;63684;47.964;11.186;2023-08-06T01:49:53;2.10;;;1.80;;
75096;SDS011;63684;47.964;11.186;2023-08-06T01:52:18;3.33;;;2.30;;
75096;SDS011;63684;47.964;11.186;2023-08-06T01:54:44;2.67;;;1.90;;
75096;SDS011;63684;47.964;11.186;2023-08-06T01:57:10;2.47;;;2.27;;
75096;SDS011;63684;47.964;11.186;2023-08-06T01:59:35;2.80;;;2.10;;
75096;SDS011;63684;47.964;11.186;2023-08-06T02:02:01;3.57;;;2.43;;
75096;SDS011;63684;47.964;11.186;2023-08-06T02:04:26;2.37;;;2.17;;
75096;SDS011;63684;47.964;11.186;2023-08-06T02:06:52;3.20;;;2.00;;
75096;SDS011;63684;47.964;11.186;2023-08-06T02:09:17;3.20;;;2.33;;
75096;SDS011;63684;47.964;11.186;2023-08-06T02:11:43;4.10;;;2.70;;
75096;SDS011;63684;47.964;11.186;2023-08-06T02:14:08;2.27;;;2.07;;
75096;SDS011;63684;47.964;11.186;2023-08-06T02:16:33;2.33;;;1.77;;
75096;SDS011;63684;47.964;11.186;2023-08-06T02:18:59;2.60;;;2.37;;
75096;SDS011;63684;47.964;11.186;2023-08-06T02:21:24;8.10;;;2.27;;
75096;SDS011;63684;47.964;11.186;2023-08-06T02:23:50;4.73;;;2.27;;
75096;SDS011;63684;47.964;11.186;2023-08-06T02:26:15;3.67;;;2.30;;
75096;SDS011;63684;47.964;11.186;2023-08-06T02:28:41;3.20;;;2.60;;
75096;SDS011;63684;47.964;11.186;2023-08-06T02:31:06;2.40;;;2.20;;
75096;SDS011;63684;47.964;11.186;2023-08-06T02:33:33;2.97;;;2.00;;
75096;SDS011;63684;47.964;11.186;2023-08-06T02:35:59;2.60;;;2.30;;
75096;SDS011;63684;47.964;11.186;2023-08-06T02:38:29;3.80;;;2.23;;
75096;SDS011;63684;47.964;11.186;2023-08-06T02:40:55;2.03;;;1.80;;
75096;SDS011;63684;47.964;11.186;2023-08-06T02:43:22;3.67;;;2.10;;
75096;SDS011;63684;47.964;11.186;2023-08-06T02:45:48;3.73;;;2.30;;
75096;SDS011;63684;47.964;11.186;2023-08-06T02:48:14;4.87;;;1.90;;
75096;SDS011;63684;47.964;11.186;2023-08-06T02:50:40;2.37;;;2.17;;
75096;SDS011;63684;47.964;11.186;2023-08-06T02:53:07;3.20;;;2.40;;
75096;SDS011;63684;47.964;11.186;2023-08-06T02:55:33;2.57;;;2.00;;
75096;SDS011;63684;47.964;11.186;2023-08-06T02:58:01;2.20;;;2.00;;
75096;SDS011;63684;47.964;11.186;2023-08-06T03:00:31;3.57;;;2.43;;
75096;SDS011;63684;47.964;11.186;2023-08-06T03:02:58;2.30;;;2.10;;
75096;SDS011;63684;47.964;11.186;2023-08-06T03:05:52;1.80;;;1.70;;
75096;SDS011;63684;47.964;11.186;2023-08-06T03:08:24;4.33;;;1.63;;
75096;SDS011;63684;47.964;11.186;2023-08-06T03:10:50;5.50;;;1.80;;
75096;SDS011;63684;47.964;11.186;2023-08-06T03:13:17;2.77;;;1.80;;
75096;SDS011;63684;47.964;11.186;2023-08-06T03:15:51;3.67;;;2.00;;
75096;SDS011;63684;47.964;11.186;2023-08-06T03:18:20;4.67;;;1.90;;
75096;SDS011;63684;47.964;11.186;2023-08-06T03:20:48;2.67;;;1.77;;
75096;SDS011;63684;47.964;11.186;2023-08-06T03:23:14;2.07;;;1.97;;
75096;SDS011;63684;47.964;11.186;2023-08-06T03:25:40;3.30;;;2.23;;
75096;SDS011;63684;47.964;11.186;2023-08-06T03:28:06;2.40;;;2.13;;
75096;SDS011;63684;47.964;11.186;2023-08-06T03:30:33;2.80;;;1.80;;
75096;SDS011;63684;47.964;11.186;2023-08-06T03:32:59;2.33;;;1.80;;
75096;SDS011;63684;47.964;11.186;2023-08-06T03:35:24;2.83;;;1.90;;
75096;SDS011;63684;47.964;11.186;2023-08-06T03:37:50;5.10;;;2.17;;
75096;SDS011;63684;47.964;11.186;2023-08-06T03:40:16;1.70;;;1.60;;
75096;SDS011;63684;47.964;11.186;2023-08-06T03:42:41;2.17;;;1.90;;
75096;SDS011;63684;47.964;11.186;2023-08-06T03:45:07;4.73;;;1.90;;
75096;SDS011;63684;47.964;11.186;2023-08-06T03:47:33;2.60;;;2.00;;
75096;SDS011;63684;47.964;11.186;2023-08-06T03:49:58;2.80;;;1.90;;
75096;SDS011;63684;47.964;11.186;2023-08-06T03:52:24;3.10;;;2.47;;
75096;SDS011;63684;47.964;11.186;2023-08-06T03:54:49;1.90;;;1.70;;
75096;SDS011;63684;47.964;11.186;2023-08-06T03:57:15;2.80;;;2.30;;
75096;SDS011;63684;47.964;11.186;2023-08-06T03:59:41;2.13;;;1.93;;
75096;SDS011;63684;47.964;11.186;2023-08-06T04:02:06;2.50;;;1.70;;
75096;SDS011;63684;47.964;11.186;2023-08-06T04:04:32;2.67;;;2.20;;
75096;SDS011;63684;47.964;11.186;2023-08-06T04:06:57;2.43;;;1.80;;
75096;SDS011;63684;47.964;11.186;2023-08-06T04:09:22;2.77;;;2.40;;
75096;SDS011;63684;47.964;11.186;2023-08-06T04:11:48;5.33;;;2.70;;
75096;SDS011;63684;47.964;11.186;2023-08-06T04:14:13;2.00;;;1.90;;
75096;SDS011;63684;47.964;11.186;2023-08-06T04:16:39;2.20;;;2.00;;
75096;SDS011;63684;47.964;11.186;2023-08-06T04:19:04;2.13;;;2.00;;
75096;SDS011;63684;47.964;11.186;2023-08-06T04:21:30;3.37;;;2.63;;
75096;SDS011;63684;47.964;11.186;2023-08-06T04:23:56;1.90;;;1.73;;
75096;SDS011;63684;47.964;11.186;2023-08-06T04:26:21;2.60;;;1.90;;
75096;SDS011;63684;47.964;11.186;2023-08-06T04:28:47;2.43;;;1.70;;
75096;SDS011;63684;47.964;11.186;2023-08-06T04:31:14;3.13;;;1.90;;
75096;SDS011;63684;47.964;11.186;2023-08-06T04:33:42;2.20;;;1.90;;
75096;SDS011;63684;47.964;11.186;2023-08-06T04:36:11;3.03;;;2.10;;
75096;SDS011;63684;47.964;11.186;2023-08-06T04:38:36;4.23;;;2.13;;
75096;SDS011;63684;47.964;11.186;2023-08-06T04:41:03;2.43;;;1.80;;
75096;SDS011;63684;47.964;11.186;2023-08-06T04:43:29;3.60;;;1.63;;
75096;SDS011;63684;47.964;11.186;2023-08-06T04:45:55;2.23;;;2.03;;
75096;SDS011;63684;47.964;11.186;2023-08-06T04:48:21;2.57;;;1.80;;
75096;SDS011;63684;47.964;11.186;2023-08-06T04:50:48;2.47;;;1.77;;
75096;SDS011;63684;47.964;11.186;2023-08-06T04:53:14;2.37;;;1.80;;
75096;SDS011;63684;47.964;11.186;2023-08-06T04:55:40;1.70;;;1.60;;
75096;SDS011;63684;47.964;11.186;2023-08-06T04:58:05;2.13;;;1.60;;
75096;SDS011;63684;47.964;11.186;2023-08-06T05:00:31;2.03;;;1.80;;
75096;SDS011;63684;47.964;11.186;2023-08-06T05:02:56;1.97;;;1.83;;
75096;SDS011;63684;47.964;11.186;2023-08-06T05:05:24;1.83;;;1.57;;
75096;SDS011;63684;47.964;11.186;2023-08-06T05:07:49;3.60;;;1.43;;
75096;SDS011;63684;47.964;11.186;2023-08-06T05:10:15;1.70;;;1.60;;
75096;SDS011;63684;47.964;11.186;2023-08-06T05:12:41;1.67;;;1.40;;
75096;SDS011;63684;47.964;11.186;2023-08-06T05:15:06;1.50;;;1.40;;
75096;SDS011;63684;47.964;11.186;2023-08-06T05:17:32;1.83;;;1.43;;
75096;SDS011;63684;47.964;11.186;2023-08-06T05:19:59;2.73;;;1.50;;
75096;SDS011;63684;47.964;11.186;2023-08-06T05:22:24;2.83;;;1.33;;
75096;SDS011;63684;47.964;11.186;2023-08-06T05:24:50;4.47;;;1.30;;
75096;SDS011;63684;47.964;11.186;2023-08-06T05:27:15;1.57;;;1.47;;
75096;SDS011;63684;47.964;11.186;2023-08-06T05:29:40;1.93;;;1.40;;
75096;SDS011;63684;47.964;11.186;2023-08-06T05:32:06;3.00;;;1.40;;
75096;SDS011;63684;47.964;11.186;2023-08-06T05:34:32;1.40;;;1.23;;
75096;SDS011;63684;47.964;11.186;2023-08-06T05:36:57;1.20;;;1.00;;
75096;SDS011;63684;47.964;11.186;2023-08-06T05:39:23;3.40;;;1.37;;
75096;SDS011;63684;47.964;11.186;2023-08-06T05:41:48;2.17;;;1.27;;
75096;SDS011;63684;47.964;11.186;2023-08-06T05:44:15;1.50;;;1.20;;
75096;SDS011;63684;47.964;11.186;2023-08-06T05:46:40;2.83;;;1.10;;
75096;SDS011;63684;47.964;11.186;2023-08-06T05:49:06;1.50;;;1.00;;
75096;SDS011;63684;47.964;11.186;2023-08-06T05:51:31;3.10;;;1.33;;
75096;SDS011;63684;47.964;11.186;2023-08-06T05:53:57;2.33;;;1.60;;
75096;SDS011;63684;47.964;11.186;2023-08-06T05:56:22;2.93;;;1.37;;
75096;SDS011;63684;47.964;11.186;2023-08-06T05:58:48;3.43;;;1.30;;
75096;SDS011;63684;47.964;11.186;2023-08-06T06:01:15;1.40;;;1.30;;
75096;SDS011;63684;47.964;11.186;2023-08-06T06:03:41;1.27;;;0.90;;
75096;SDS011;63684;47.964;11.186;2023-08-06T06:06:06;1.30;;;1.20;;
75096;SDS011;63684;47.964;11.186;2023-08-06T06:08:32;3.97;;;1.20;;
75096;SDS011;63684;47.964;11.186;2023-08-06T06:10:59;1.27;;;1.17;;
75096;SDS011;63684;47.964;11.186;2023-08-06T06:13:24;2.10;;;1.30;;
75096;SDS011;63684;47.964;11.186;2023-08-06T06:15:49;1.60;;;1.30;;
75096;SDS011;63684;47.964;11.186;2023-08-06T06:18:15;4.13;;;1.30;;
75096;SDS011;63684;47.964;11.186;2023-08-06T06:20:40;1.33;;;1.20;;
75096;SDS011;63684;47.964;11.186;2023-08-06T06:23:06;3.47;;;1.37;;
75096;SDS011;63684;47.964;11.186;2023-08-06T06:25:31;2.25;;;1.10;;
75096;SDS011;63684;47.964;11.186;2023-08-06T06:27:56;2.43;;;1.20;;
75096;SDS011;63684;47.964;11.186;2023-08-06T06:30:23;1.67;;;1.20;;
75096;SDS011;63684;47.964;11.186;2023-08-06T06:32:49;2.30;;;1.17;;
75096;SDS011;63684;47.964;11.186;2023-08-06T06:35:14;3.15;;;1.20;;
75096;SDS011;63684;47.964;11.186;2023-08-06T06:37:40;1.97;;;1.10;;
75096;SDS011;63684;47.964;11.186;2023-08-06T06:40:05;2.17;;;1.30;;
75096;SDS011;63684;47.964;11.186;2023-08-06T06:42:31;1.50;;;1.10;;
75096;SDS011;63684;47.964;11.186;2023-08-06T06:45:00;3.05;;;1.20;;
75096;SDS011;63684;47.964;11.186;2023-08-06T06:47:25;1.17;;;0.93;;
75096;SDS011;63684;47.964;11.186;2023-08-06T06:49:51;1.08;;;0.98;;
75096;SDS011;63684;47.964;11.186;2023-08-06T06:52:16;3.42;;;1.40;;
75096;SDS011;63684;47.964;11.186;2023-08-06T06:54:42;2.70;;;1.40;;
75096;SDS011;63684;47.964;11.186;2023-08-06T06:57:07;4.28;;;1.20;;
75096;SDS011;63684;47.964;11.186;2023-08-06T06:59:32;2.20;;;1.03;;
75096;SDS011;63684;47.964;11.186;2023-08-06T07:01:58;4.20;;;1.07;;
75096;SDS011;63684;47.964;11.186;2023-08-06T07:04:23;3.90;;;1.07;;
75096;SDS011;63684;47.964;11.186;2023-08-06T07:06:49;1.80;;;1.03;;
75096;SDS011;63684;47.964;11.186;2023-08-06T07:09:14;2.27;;;1.10;;
75096;SDS011;63684;47.964;11.186;2023-08-06T07:11:39;1.20;;;1.07;;
75096;SDS011;63684;47.964;11.186;2023-08-06T07:14:07;1.80;;;0.87;;
75096;SDS011;63684;47.964;11.186;2023-08-06T07:16:32;1.67;;;1.00;;
75096;SDS011;63684;47.964;11.186;2023-08-06T07:18:59;2.47;;;1.30;;
75096;SDS011;63684;47.964;11.186;2023-08-06T07:21:25;1.17;;;1.07;;
75096;SDS011;63684;47.964;11.186;2023-08-06T07:23:50;2.37;;;1.10;;
75096;SDS011;63684;47.964;11.186;2023-08-06T07:26:16;1.77;;;1.30;;
75096;SDS011;63684;47.964;11.186;2023-08-06T07:28:41;1.27;;;0.97;;
75096;SDS011;63684;47.964;11.186;2023-08-06T07:31:07;1.53;;;1.07;;
75096;SDS011;63684;47.964;11.186;2023-08-06T07:33:32;1.27;;;0.87;;
75096;SDS011;63684;47.964;11.186;2023-08-06T07:35:58;1.87;;;0.80;;
75096;SDS011;63684;47.964;11.186;2023-08-06T07:38:23;5.83;;;1.03;;
75096;SDS011;63684;47.964;11.186;2023-08-06T07:40:49;1.70;;;0.68;;
75096;SDS011;63684;47.964;11.186;2023-08-06T07:43:14;1.63;;;0.77;;
75096;SDS011;63684;47.964;11.186;2023-08-06T07:45:39;4.77;;;0.83;;
75096;SDS011;63684;47.964;11.186;2023-08-06T07:48:05;1.07;;;0.77;;
75096;SDS011;63684;47.964;11.186;2023-08-06T07:50:30;3.40;;;1.00;;
75096;SDS011;63684;47.964;11.186;2023-08-06T07:52:56;2.25;;;0.85;;
75096;SDS011;63684;47.964;11.186;2023-08-06T07:55:21;1.88;;;0.93;;
75096;SDS011;63684;47.964;11.186;2023-08-06T07:57:47;2.92;;;0.50;;
75096;SDS011;63684;47.964;11.186;2023-08-06T08:00:12;2.85;;;0.90;;
75096;SDS011;63684;47.964;11.186;2023-08-06T08:02:38;0.75;;;0.45;;
75096;SDS011;63684;47.964;11.186;2023-08-06T08:05:03;1.73;;;0.70;;
75096;SDS011;63684;47.964;11.186;2023-08-06T08:07:29;1.42;;;0.50;;
75096;SDS011;63684;47.964;11.186;2023-08-06T08:09:56;1.70;;;0.70;;
75096;SDS011;63684;47.964;11.186;2023-08-06T08:12:21;4.18;;;0.50;;
75096;SDS011;63684;47.964;11.186;2023-08-06T08:14:47;2.63;;;0.43;;
75096;SDS011;63684;47.964;11.186;2023-08-06T08:17:12;0.95;;;0.40;;
75096;SDS011;63684;47.964;11.186;2023-08-06T08:19:39;0.77;;;0.35;;
75096;SDS011;63684;47.964;11.186;2023-08-06T08:22:05;0.77;;;0.57;;
75096;SDS011;63684;47.964;11.186;2023-08-06T08:24:30;1.65;;;0.50;;
75096;SDS011;63684;47.964;11.186;2023-08-06T08:26:56;2.35;;;0.52;;
75096;SDS011;63684;47.964;11.186;2023-08-06T08:29:22;1.90;;;0.52;;
75096;SDS011;63684;47.964;11.186;2023-08-06T08:31:47;1.27;;;0.47;;
75096;SDS011;63684;47.964;11.186;2023-08-06T08:34:16;0.63;;;0.40;;
75096;SDS011;63684;47.964;11.186;2023-08-06T08:36:42;1.08;;;0.50;;
75096;SDS011;63684;47.964;11.186;2023-08-06T08:39:08;1.48;;;0.47;;
75096;SDS011;63684;47.964;11.186;2023-08-06T08:41:33;1.67;;;0.68;;
75096;SDS011;63684;47.964;11.186;2023-08-06T08:44:01;0.65;;;0.30;;
75096;SDS011;63684;47.964;11.186;2023-08-06T08:46:27;1.65;;;0.30;;
75096;SDS011;63684;47.964;11.186;2023-08-06T08:48:57;1.25;;;0.30;;
75096;SDS011;63684;47.964;11.186;2023-08-06T08:51:24;2.88;;;0.63;;
75096;SDS011;63684;47.964;11.186;2023-08-06T08:53:50;2.65;;;0.40;;
75096;SDS011;63684;47.964;11.186;2023-08-06T08:56:18;1.40;;;0.40;;
75096;SDS011;63684;47.964;11.186;2023-08-06T08:58:44;0.35;;;0.25;;
75096;SDS011;63684;47.964;11.186;2023-08-06T09:01:10;1.77;;;0.40;;
75096;SDS011;63684;47.964;11.186;2023-08-06T09:03:36;2.70;;;0.50;;
75096;SDS011;63684;47.964;11.186;2023-08-06T09:06:01;0.95;;;0.30;;
75096;SDS011;63684;47.964;11.186;2023-08-06T09:08:30;1.63;;;0.30;;
75096;SDS011;63684;47.964;11.186;2023-08-06T09:11:00;1.10;;;0.50;;
75096;SDS011;63684;47.964;11.186;2023-08-06T09:13:27;1.17;;;0.40;;
75096;SDS011;63684;47.964;11.186;2023-08-06T09:15:52;0.63;;;0.30;;
75096;SDS011;63684;47.964;11.186;2023-08-06T09:18:24;2.17;;;0.43;;
75096;SDS011;63684;47.964;11.186;2023-08-06T09:20:54;1.00;;;0.40;;
75096;SDS011;63684;47.964;11.186;2023-08-06T09:23:20;4.93;;;0.40;;
75096;SDS011;63684;47.964;11.186;2023-08-06T09:25:45;0.47;;;0.47;;
75096;SDS011;63684;47.964;11.186;2023-08-06T09:28:12;3.07;;;0.23;;
75096;SDS011;63684;47.964;11.186;2023-08-06T09:30:38;0.70;;;0.27;;
75096;SDS011;63684;47.964;11.186;2023-08-06T09:33:10;0.30;;;0.30;;
75096;SDS011;63684;47.964;11.186;2023-08-06T09:35:36;0.80;;;0.20;;
75096;SDS011;63684;47.964;11.186;2023-08-06T09:38:05;0.60;;;0.40;;
75096;SDS011;63684;47.964;11.186;2023-08-06T09:40:35;2.50;;;0.50;;
75096;SDS011;63684;47.964;11.186;2023-08-06T09:43:01;1.97;;;0.30;;
75096;SDS011;63684;47.964;11.186;2023-08-06T09:45:30;0.28;;;0.28;;
75096;SDS011;63684;47.964;11.186;2023-08-06T09:48:00;0.40;;;0.30;;
75096;SDS011;63684;47.964;11.186;2023-08-06T09:50:29;0.20;;;0.20;;
75096;SDS011;63684;47.964;11.186;2023-08-06T09:52:56;0.43;;;0.20;;
75096;SDS011;63684;47.964;11.186;2023-08-06T09:55:22;0.52;;;0.30;;
75096;SDS011;63684;47.964;11.186;2023-08-06T09:57:48;0.28;;;0.20;;
75096;SDS011;63684;47.964;11.186;2023-08-06T10:00:14;0.22;;;0.20;;
75096;SDS011;63684;47.964;11.186;2023-08-06T10:02:40;1.43;;;0.33;;
75096;SDS011;63684;47.964;11.186;2023-08-06T10:05:06;1.65;;;0.40;;
75096;SDS011;63684;47.964;11.186;2023-08-06T10:07:32;1.60;;;0.30;;
75096;SDS011;63684;47.964;11.186;2023-08-06T10:09:58;0.83;;;0.30;;
75096;SDS011;63684;47.964;11.186;2023-08-06T10:12:25;0.40;;;0.30;;
75096;SDS011;63684;47.964;11.186;2023-08-06T10:14:51;1.03;;;0.40;;
75096;SDS011;63684;47.964;11.186;2023-08-06T10:17:19;1.03;;;0.50;;
75096;SDS011;63684;47.964;11.186;2023-08-06T10:19:46;0.38;;;0.30;;
75096;SDS011;63684;47.964;11.186;2023-08-06T10:22:15;0.95;;;0.20;;
75096;SDS011;63684;47.964;11.186;2023-08-06T10:24:55;1.75;;;0.20;;
75096;SDS011;63684;47.964;11.186;2023-08-06T10:29:54;1.70;;;0.30;;
75096;SDS011;63684;47.964;11.186;2023-08-06T10:32:20;0.63;;;0.20;;
75096;SDS011;63684;47.964;11.186;2023-08-06T10:34:56;0.20;;;0.20;;
75096;SDS011;63684;47.964;11.186;2023-08-06T10:37:23;1.33;;;0.40;;
75096;SDS011;63684;47.964;11.186;2023-08-06T10:39:52;0.90;;;0.60;;
75096;SDS011;63684;47.964;11.186;2023-08-06T10:42:21;0.97;;;0.20;;
75096;SDS011;63684;47.964;11.186;2023-08-06T10:47:42;0.67;;;0.27;;
75096;SDS011;63684;47.964;11.186;2023-08-06T10:50:10;0.63;;;0.20;;
75096;SDS011;63684;47.964;11.186;2023-08-06T10:52:37;0.33;;;0.23;;
75096;SDS011;63684;47.964;11.186;2023-08-06T10:55:02;0.20;;;0.20;;
75096;SDS011;63684;47.964;11.186;2023-08-06T10:57:28;0.20;;;0.15;;
75096;SDS011;63684;47.964;11.186;2023-08-06T10:59:54;0.60;;;0.30;;
75096;SDS011;63684;47.964;11.186;2023-08-06T11:02:19;0.25;;;0.25;;
75096;SDS011;63684;47.964;11.186;2023-08-06T11:04:45;0.20;;;0.10;;
75096;SDS011;63684;47.964;11.186;2023-08-06T11:07:10;0.30;;;0.30;;
75096;SDS011;63684;47.964;11.186;2023-08-06T11:09:36;0.20;;;0.20;;
75096;SDS011;63684;47.964;11.186;2023-08-06T11:12:02;0.63;;;0.20;;
75096;SDS011;63684;47.964;11.186;2023-08-06T11:14:30;0.20;;;0.20;;
75096;SDS011;63684;47.964;11.186;2023-08-06T11:16:55;0.30;;;0.20;;
75096;SDS011;63684;47.964;11.186;2023-08-06T11:19:21;0.10;;;0.10;;
75096;SDS011;63684;47.964;11.186;2023-08-06T11:21:49;0.10;;;0.10;;
75096;SDS011;63684;47.964;11.186;2023-08-06T11:24:16;0.33;;;0.30;;
75096;SDS011;63684;47.964;11.186;2023-08-06T11:26:41;0.20;;;0.20;;
75096;SDS011;63684;47.964;11.186;2023-08-06T11:29:09;0.23;;;0.23;;
75096;SDS011;63684;47.964;11.186;2023-08-06T11:31:35;0.20;;;0.20;;
75096;SDS011;63684;47.964;11.186;2023-08-06T11:34:01;0.73;;;0.30;;
75096;SDS011;63684;47.964;11.186;2023-08-06T11:36:33;0.20;;;0.20;;
75096;SDS011;63684;47.964;11.186;2023-08-06T11:39:03;2.37;;;0.30;;
75096;SDS011;63684;47.964;11.186;2023-08-06T11:41:30;0.30;;;0.20;;
75096;SDS011;63684;47.964;11.186;2023-08-06T11:43:56;0.20;;;0.20;;
75096;SDS011;63684;47.964;11.186;2023-08-06T11:46:22;0.20;;;0.20;;
75096;SDS011;63684;47.964;11.186;2023-08-06T11:48:51;1.80;;;0.20;;
75096;SDS011;63684;47.964;11.186;2023-08-06T11:51:18;0.20;;;0.20;;
75096;SDS011;63684;47.964;11.186;2023-08-06T11:53:48;0.37;;;0.30;;
75096;SDS011;63684;47.964;11.186;2023-08-06T11:56:14;0.20;;;0.20;;
75096;SDS011;63684;47.964;11.186;2023-08-06T11:58:40;0.40;;;0.10;;
75096;SDS011;63684;47.964;11.186;2023-08-06T12:01:06;0.20;;;0.20;;
75096;SDS011;63684;47.964;11.186;2023-08-06T12:03:32;0.20;;;0.20;;
75096;SDS011;63684;47.964;11.186;2023-08-06T12:05:57;0.77;;;0.20;;
75096;SDS011;63684;47.964;11.186;2023-08-06T12:08:26;0.15;;;0.15;;
75096;SDS011;63684;47.964;11.186;2023-08-06T12:10:51;0.37;;;0.20;;
75096;SDS011;63684;47.964;11.186;2023-08-06T12:13:18;0.40;;;0.30;;
75096;SDS011;63684;47.964;11.186;2023-08-06T12:15:44;0.10;;;0.10;;
75096;SDS011;63684;47.964;11.186;2023-08-06T12:18:10;0.32;;;0.30;;
75096;SDS011;63684;47.964;11.186;2023-08-06T12:20:35;1.17;;;0.20;;
75096;SDS011;63684;47.964;11.186;2023-08-06T12:23:01;0.10;;;0.10;;
75096;SDS011;63684;47.964;11.186;2023-08-06T12:25:27;1.40;;;0.17;;
75096;SDS011;63684;47.964;11.186;2023-08-06T12:27:52;0.20;;;0.20;;
75096;SDS011;63684;47.964;11.186;2023-08-06T12:30:17;0.50;;;0.20;;
75096;SDS011;63684;47.964;11.186;2023-08-06T12:32:43;1.30;;;0.20;;
75096;SDS011;63684;47.964;11.186;2023-08-06T12:35:08;0.20;;;0.10;;
75096;SDS011;63684;47.964;11.186;2023-08-06T12:37:34;0.10;;;0.10;;
75096;SDS011;63684;47.964;11.186;2023-08-06T12:40:00;0.90;;;0.32;;
75096;SDS011;63684;47.964;11.186;2023-08-06T12:42:25;1.30;;;0.30;;
75096;SDS011;63684;47.964;11.186;2023-08-06T12:44:51;1.30;;;0.30;;
75096;SDS011;63684;47.964;11.186;2023-08-06T12:47:16;0.10;;;0.10;;
75096;SDS011;63684;47.964;11.186;2023-08-06T12:49:42;1.20;;;0.27;;
75096;SDS011;63684;47.964;11.186;2023-08-06T12:52:07;0.50;;;0.13;;
75096;SDS011;63684;47.964;11.186;2023-08-06T12:54:34;0.43;;;0.20;;
75096;SDS011;63684;47.964;11.186;2023-08-06T12:57:03;0.57;;;0.20;;
75096;SDS011;63684;47.964;11.186;2023-08-06T12:59:29;0.40;;;0.20;;
75096;SDS011;63684;47.964;11.186;2023-08-06T13:01:55;0.20;;;0.20;;
75096;SDS011;63684;47.964;11.186;2023-08-06T13:04:20;0.40;;;0.20;;
75096;SDS011;63684;47.964;11.186;2023-08-06T13:06:46;0.20;;;0.20;;
75096;SDS011;63684;47.964;11.186;2023-08-06T13:09:12;0.20;;;0.20;;
75096;SDS011;63684;47.964;11.186;2023-08-06T13:11:38;0.30;;;0.30;;
75096;SDS011;63684;47.964;11.186;2023-08-06T13:14:05;1.23;;;0.20;;
75096;SDS011;63684;47.964;11.186;2023-08-06T13:16:35;0.40;;;0.20;;
75096;SDS011;63684;47.964;11.186;2023-08-06T13:19:02;0.20;;;0.20;;
75096;SDS011;63684;47.964;11.186;2023-08-06T13:21:31;0.10;;;0.10;;
75096;SDS011;63684;47.964;11.186;2023-08-06T13:23:58;0.30;;;0.23;;
75096;SDS011;63684;47.964;11.186;2023-08-06T13:26:23;0.30;;;0.30;;
75096;SDS011;63684;47.964;11.186;2023-08-06T13:28:49;1.80;;;0.33;;
75096;SDS011;63684;47.964;11.186;2023-08-06T13:31:14;0.50;;;0.20;;
75096;SDS011;63684;47.964;11.186;2023-08-06T13:33:40;0.20;;;0.20;;
75096;SDS011;63684;47.964;11.186;2023-08-06T13:36:05;2.07;;;0.20;;
75096;SDS011;63684;47.964;11.186;2023-08-06T13:38:30;0.37;;;0.20;;
75096;SDS011;63684;47.964;11.186;2023-08-06T13:40:56;0.47;;;0.20;;
75096;SDS011;63684;47.964;11.186;2023-08-06T13:43:22;3.10;;;0.30;;
75096;SDS011;63684;47.964;11.186;2023-08-06T13:45:47;0.30;;;0.30;;
75096;SDS011;63684;47.964;11.186;2023-08-06T13:48:12;2.50;;;0.40;;
75096;SDS011;63684;47.964;11.186;2023-08-06T13:50:38;0.30;;;0.20;;
75096;SDS011;63684;47.964;11.186;2023-08-06T13:53:03;0.20;;;0.20;;
75096;SDS011;63684;47.964;11.186;2023-08-06T13:55:29;0.50;;;0.23;;
75096;SDS011;63684;47.964;11.186;2023-08-06T13:57:55;0.20;;;0.20;;
75096;SDS011;63684;47.964;11.186;2023-08-06T14:00:20;3.40;;;0.30;;
75096;SDS011;63684;47.964;11.186;2023-08-06T14:02:46;0.10;;;0.10;;
75096;SDS011;63684;47.964;11.186;2023-08-06T14:05:11;0.20;;;0.20;;
75096;SDS011;63684;47.964;11.186;2023-08-06T14:07:37;0.53;;;0.20;;
75096;SDS011;63684;47.964;11.186;2023-08-06T14:10:02;0.97;;;0.20;;
75096;SDS011;63684;47.964;11.186;2023-08-06T14:12:28;0.67;;;0.20;;
75096;SDS011;63684;47.964;11.186;2023-08-06T14:14:53;0.10;;;0.10;;
75096;SDS011;63684;47.964;11.186;2023-08-06T14:17:19;0.40;;;0.20;;
75096;SDS011;63684;47.964;11.186;2023-08-06T14:19:44;0.20;;;0.17;;
75096;SDS011;63684;47.964;11.186;2023-08-06T14:22:10;0.40;;;0.40;;
75096;SDS011;63684;47.964;11.186;2023-08-06T14:24:35;0.20;;;0.20;;
75096;SDS011;63684;47.964;11.186;2023-08-06T14:27:01;0.20;;;0.20;;
75096;SDS011;63684;47.964;11.186;2023-08-06T14:29:28;0.20;;;0.20;;
75096;SDS011;63684;47.964;11.186;2023-08-06T14:31:54;0.20;;;0.20;;
75096;SDS011;63684;47.964;11.186;2023-08-06T14:34:19;0.20;;;0.20;;
75096;SDS011;63684;47.964;11.186;2023-08-06T14:36:45;0.20;;;0.20;;
75096;SDS011;63684;47.964;11.186;2023-08-06T14:39:10;0.77;;;0.30;;
75096;SDS011;63684;47.964;11.186;2023-08-06T14:41:35;0.70;;;0.50;;